sensor_id;sensor_type;location;lat;lon;timestamp;temperature;humidity
60701;DHT22;46541;49.894;10.886;2023-05-02T00:01:13;10.30;99.90
60701;DHT22;46541;49.894;10.886;2023-05-02T00:03:40;10.30;99.90
60701;DHT22;46541;49.894;10.886;2023-05-02T00:06:09;10.30;99.90
60701;DHT22;46541;49.894;10.886;2023-05-02T00:08:36;10.30;99.90
60701;DHT22;46541;49.894;10.886;2023-05-02T00:11:03;10.30;99.90
60701;DHT22;46541;49.894;10.886;2023-05-02T00:13:30;10.30;99.90
60701;DHT22;46541;49.894;10.886;2023-05-02T00:15:57;10.20;99.90
60701;DHT22;46541;49.894;10.886;2023-05-02T00:18:24;10.20;99.90
60701;DHT22;46541;49.894;10.886;2023-05-02T00:20:51;10.10;99.90
60701;DHT22;46541;49.894;10.886;2023-05-02T00:23:17;10.10;99.90
60701;DHT22;46541;49.894;10.886;2023-05-02T00:25:45;10.00;99.90
60701;DHT22;46541;49.894;10.886;2023-05-02T00:28:12;10.20;99.90
60701;DHT22;46541;49.894;10.886;2023-05-02T00:30:45;10.20;99.90
60701;DHT22;46541;49.894;10.886;2023-05-02T00:33:13;10.20;99.90
60701;DHT22;46541;49.894;10.886;2023-05-02T00:35:40;10.20;99.90
60701;DHT22;46541;49.894;10.886;2023-05-02T00:38:07;10.10;99.90
60701;DHT22;46541;49.894;10.886;2023-05-02T00:40:44;10.10;99.90
60701;DHT22;46541;49.894;10.886;2023-05-02T00:43:12;10.10;99.90
60701;DHT22;46541;49.894;10.886;2023-05-02T00:45:39;10.10;99.90
60701;DHT22;46541;49.894;10.886;2023-05-02T00:48:07;10.00;99.90
60701;DHT22;46541;49.894;10.886;2023-05-02T00:50:39;10.00;99.90
60701;DHT22;46541;49.894;10.886;2023-05-02T00:53:08;10.00;99.90
60701;DHT22;46541;49.894;10.886;2023-05-02T00:55:35;10.00;99.90
60701;DHT22;46541;49.894;10.886;2023-05-02T00:58:06;10.00;99.90
60701;DHT22;46541;49.894;10.886;2023-05-02T01:03:24;10.00;99.90
60701;DHT22;46541;49.894;10.886;2023-05-02T01:06:10;10.00;99.90
60701;DHT22;46541;49.894;10.886;2023-05-02T01:12:09;9.90;99.90
60701;DHT22;46541;49.894;10.886;2023-05-02T01:14:46;9.90;99.90
60701;DHT22;46541;49.894;10.886;2023-05-02T01:17:17;9.80;99.90
60701;DHT22;46541;49.894;10.886;2023-05-02T01:19:55;9.90;99.90
60701;DHT22;46541;49.894;10.886;2023-05-02T01:22:25;9.80;99.90
60701;DHT22;46541;49.894;10.886;2023-05-02T01:30:28;9.90;99.90
60701;DHT22;46541;49.894;10.886;2023-05-02T01:32:57;9.90;99.90
60701;DHT22;46541;49.894;10.886;2023-05-02T01:35:25;9.90;99.90
60701;DHT22;46541;49.894;10.886;2023-05-02T01:37:54;9.90;99.90
60701;DHT22;46541;49.894;10.886;2023-05-02T01:40:23;9.90;99.90
60701;DHT22;46541;49.894;10.886;2023-05-02T01:42:52;9.90;99.90
60701;DHT22;46541;49.894;10.886;2023-05-02T01:45:21;9.90;99.90
60701;DHT22;46541;49.894;10.886;2023-05-02T01:47:49;9.90;99.90
60701;DHT22;46541;49.894;10.886;2023-05-02T01:50:20;9.90;99.90
60701;DHT22;46541;49.894;10.886;2023-05-02T01:52:50;9.80;99.90
60701;DHT22;46541;49.894;10.886;2023-05-02T01:55:19;9.80;99.90
60701;DHT22;46541;49.894;10.886;2023-05-02T01:57:46;9.80;99.90
60701;DHT22;46541;49.894;10.886;2023-05-02T02:00:16;9.80;99.90
60701;DHT22;46541;49.894;10.886;2023-05-02T02:02:45;9.80;99.90
60701;DHT22;46541;49.894;10.886;2023-05-02T02:05:13;9.80;99.90
60701;DHT22;46541;49.894;10.886;2023-05-02T02:07:40;9.80;99.90
60701;DHT22;46541;49.894;10.886;2023-05-02T02:10:07;9.70;99.90
60701;DHT22;46541;49.894;10.886;2023-05-02T02:12:53;9.70;99.90
60701;DHT22;46541;49.894;10.886;2023-05-02T02:15:33;9.70;99.90
60701;DHT22;46541;49.894;10.886;2023-05-02T02:18:05;9.70;99.90
60701;DHT22;46541;49.894;10.886;2023-05-02T02:20:35;9.70;99.90
60701;DHT22;46541;49.894;10.886;2023-05-02T02:23:05;9.70;99.90
60701;DHT22;46541;49.894;10.886;2023-05-02T02:25:33;9.70;99.90
60701;DHT22;46541;49.894;10.886;2023-05-02T02:28:01;9.60;99.90
60701;DHT22;46541;49.894;10.886;2023-05-02T02:30:28;9.60;99.90
60701;DHT22;46541;49.894;10.886;2023-05-02T02:32:54;9.60;99.90
60701;DHT22;46541;49.894;10.886;2023-05-02T02:35:22;9.60;99.90
60701;DHT22;46541;49.894;10.886;2023-05-02T02:41:04;9.50;99.90
60701;DHT22;46541;49.894;10.886;2023-05-02T02:43:37;9.50;99.90
60701;DHT22;46541;49.894;10.886;2023-05-02T02:46:30;9.50;99.90
60701;DHT22;46541;49.894;10.886;2023-05-02T02:52:44;9.50;99.90
60701;DHT22;46541;49.894;10.886;2023-05-02T02:54:59;9.50;99.90
60701;DHT22;46541;49.894;10.886;2023-05-02T03:00:23;9.60;99.90
60701;DHT22;46541;49.894;10.886;2023-05-02T03:02:51;9.60;99.90
60701;DHT22;46541;49.894;10.886;2023-05-02T03:05:20;9.60;99.90
60701;DHT22;46541;49.894;10.886;2023-05-02T03:07:47;9.70;99.90
60701;DHT22;46541;49.894;10.886;2023-05-02T03:10:14;9.80;99.90
60701;DHT22;46541;49.894;10.886;2023-05-02T03:12:41;9.80;99.90
60701;DHT22;46541;49.894;10.886;2023-05-02T03:17:56;9.70;99.90
60701;DHT22;46541;49.894;10.886;2023-05-02T03:20:22;9.80;99.90
60701;DHT22;46541;49.894;10.886;2023-05-02T03:22:49;9.80;99.90
60701;DHT22;46541;49.894;10.886;2023-05-02T03:25:16;9.80;99.90
60701;DHT22;46541;49.894;10.886;2023-05-02T03:27:42;9.80;99.90
60701;DHT22;46541;49.894;10.886;2023-05-02T03:30:09;9.80;99.90
60701;DHT22;46541;49.894;10.886;2023-05-02T03:32:36;9.80;99.90
60701;DHT22;46541;49.894;10.886;2023-05-02T03:35:03;9.70;99.90
60701;DHT22;46541;49.894;10.886;2023-05-02T03:37:29;9.70;99.90
60701;DHT22;46541;49.894;10.886;2023-05-02T03:39:56;9.70;99.90
60701;DHT22;46541;49.894;10.886;2023-05-02T03:42:23;9.70;99.90
60701;DHT22;46541;49.894;10.886;2023-05-02T03:44:53;9.70;99.90
60701;DHT22;46541;49.894;10.886;2023-05-02T03:47:19;9.70;99.90
60701;DHT22;46541;49.894;10.886;2023-05-02T03:49:46;9.70;99.90
60701;DHT22;46541;49.894;10.886;2023-05-02T03:52:13;9.70;99.90
60701;DHT22;46541;49.894;10.886;2023-05-02T03:54:39;9.70;99.90
60701;DHT22;46541;49.894;10.886;2023-05-02T03:57:07;9.70;99.90
60701;DHT22;46541;49.894;10.886;2023-05-02T03:59:34;9.80;99.90
60701;DHT22;46541;49.894;10.886;2023-05-02T04:02:01;9.70;99.90
60701;DHT22;46541;49.894;10.886;2023-05-02T04:04:27;9.70;99.90
60701;DHT22;46541;49.894;10.886;2023-05-02T04:06:54;9.70;99.90
60701;DHT22;46541;49.894;10.886;2023-05-02T04:09:21;9.70;99.90
60701;DHT22;46541;49.894;10.886;2023-05-02T04:11:51;9.70;99.90
60701;DHT22;46541;49.894;10.886;2023-05-02T04:14:17;9.70;99.90
60701;DHT22;46541;49.894;10.886;2023-05-02T04:16:51;9.70;99.90
60701;DHT22;46541;49.894;10.886;2023-05-02T04:19:18;9.70;99.90
60701;DHT22;46541;49.894;10.886;2023-05-02T04:21:45;9.70;99.90
60701;DHT22;46541;49.894;10.886;2023-05-02T04:24:12;9.60;99.90
60701;DHT22;46541;49.894;10.886;2023-05-02T04:26:39;9.70;99.90
60701;DHT22;46541;49.894;10.886;2023-05-02T04:29:06;9.70;99.90
60701;DHT22;46541;49.894;10.886;2023-05-02T04:31:33;9.70;99.90
60701;DHT22;46541;49.894;10.886;2023-05-02T04:34:00;9.80;99.90
60701;DHT22;46541;49.894;10.886;2023-05-02T04:36:27;9.80;99.90
60701;DHT22;46541;49.894;10.886;2023-05-02T04:38:54;9.70;99.90
60701;DHT22;46541;49.894;10.886;2023-05-02T04:41:21;9.70;99.90
60701;DHT22;46541;49.894;10.886;2023-05-02T04:43:48;9.80;99.90
60701;DHT22;46541;49.894;10.886;2023-05-02T04:46:16;9.70;99.90
60701;DHT22;46541;49.894;10.886;2023-05-02T04:48:43;9.70;99.90
60701;DHT22;46541;49.894;10.886;2023-05-02T04:51:10;9.70;99.90
60701;DHT22;46541;49.894;10.886;2023-05-02T04:53:37;9.80;99.90
60701;DHT22;46541;49.894;10.886;2023-05-02T04:56:04;9.80;99.90
60701;DHT22;46541;49.894;10.886;2023-05-02T04:58:31;9.90;99.90
60701;DHT22;46541;49.894;10.886;2023-05-02T05:00:58;9.90;99.90
60701;DHT22;46541;49.894;10.886;2023-05-02T05:03:25;10.00;99.90
60701;DHT22;46541;49.894;10.886;2023-05-02T05:05:51;10.00;99.90
60701;DHT22;46541;49.894;10.886;2023-05-02T05:08:18;10.10;99.90
60701;DHT22;46541;49.894;10.886;2023-05-02T05:10:45;10.20;99.90
60701;DHT22;46541;49.894;10.886;2023-05-02T05:13:11;10.20;99.90
60701;DHT22;46541;49.894;10.886;2023-05-02T05:15:39;10.20;99.90
60701;DHT22;46541;49.894;10.886;2023-05-02T05:18:06;10.10;99.90
60701;DHT22;46541;49.894;10.886;2023-05-02T05:20:32;10.10;99.90
60701;DHT22;46541;49.894;10.886;2023-05-02T05:22:59;10.20;99.90
60701;DHT22;46541;49.894;10.886;2023-05-02T05:25:26;10.30;99.90
60701;DHT22;46541;49.894;10.886;2023-05-02T05:27:53;10.30;99.90
60701;DHT22;46541;49.894;10.886;2023-05-02T05:30:21;10.30;99.90
60701;DHT22;46541;49.894;10.886;2023-05-02T05:32:48;10.30;99.90
60701;DHT22;46541;49.894;10.886;2023-05-02T05:35:15;10.30;99.90
60701;DHT22;46541;49.894;10.886;2023-05-02T05:37:41;10.30;99.90
60701;DHT22;46541;49.894;10.886;2023-05-02T05:40:09;10.30;99.90
60701;DHT22;46541;49.894;10.886;2023-05-02T05:42:36;10.30;99.90
60701;DHT22;46541;49.894;10.886;2023-05-02T05:45:03;10.40;99.90
60701;DHT22;46541;49.894;10.886;2023-05-02T05:47:29;10.40;99.90
60701;DHT22;46541;49.894;10.886;2023-05-02T05:49:56;10.30;99.90
60701;DHT22;46541;49.894;10.886;2023-05-02T05:52:24;10.30;99.90
60701;DHT22;46541;49.894;10.886;2023-05-02T05:54:54;10.30;99.90
60701;DHT22;46541;49.894;10.886;2023-05-02T05:57:23;10.20;99.90
60701;DHT22;46541;49.894;10.886;2023-05-02T05:59:50;10.20;99.90
60701;DHT22;46541;49.894;10.886;2023-05-02T06:02:17;10.10;99.90
60701;DHT22;46541;49.894;10.886;2023-05-02T06:04:45;10.10;99.90
60701;DHT22;46541;49.894;10.886;2023-05-02T06:07:12;10.10;99.90
60701;DHT22;46541;49.894;10.886;2023-05-02T06:09:39;10.00;99.90
60701;DHT22;46541;49.894;10.886;2023-05-02T06:12:06;10.00;99.90
60701;DHT22;46541;49.894;10.886;2023-05-02T06:14:32;10.00;99.90
60701;DHT22;46541;49.894;10.886;2023-05-02T06:16:59;10.00;99.90
60701;DHT22;46541;49.894;10.886;2023-05-02T06:19:26;10.10;99.90
60701;DHT22;46541;49.894;10.886;2023-05-02T06:21:53;10.20;99.90
60701;DHT22;46541;49.894;10.886;2023-05-02T06:24:19;10.10;99.90
60701;DHT22;46541;49.894;10.886;2023-05-02T06:26:46;10.20;99.90
60701;DHT22;46541;49.894;10.886;2023-05-02T06:29:13;10.30;99.90
60701;DHT22;46541;49.894;10.886;2023-05-02T06:31:39;10.30;99.90
60701;DHT22;46541;49.894;10.886;2023-05-02T06:34:06;10.30;99.90
60701;DHT22;46541;49.894;10.886;2023-05-02T06:36:33;10.40;99.90
60701;DHT22;46541;49.894;10.886;2023-05-02T06:39:00;10.50;99.90
60701;DHT22;46541;49.894;10.886;2023-05-02T06:41:26;10.70;99.90
60701;DHT22;46541;49.894;10.886;2023-05-02T06:43:53;10.90;99.90
60701;DHT22;46541;49.894;10.886;2023-05-02T06:46:20;11.00;99.90
60701;DHT22;46541;49.894;10.886;2023-05-02T06:48:47;11.10;99.90
60701;DHT22;46541;49.894;10.886;2023-05-02T06:51:14;11.20;99.90
60701;DHT22;46541;49.894;10.886;2023-05-02T06:53:41;11.30;99.90
60701;DHT22;46541;49.894;10.886;2023-05-02T06:56:07;11.30;99.90
60701;DHT22;46541;49.894;10.886;2023-05-02T06:58:34;11.30;99.90
60701;DHT22;46541;49.894;10.886;2023-05-02T07:01:01;11.40;99.90
60701;DHT22;46541;49.894;10.886;2023-05-02T07:03:27;11.60;99.90
60701;DHT22;46541;49.894;10.886;2023-05-02T07:05:54;11.60;99.90
60701;DHT22;46541;49.894;10.886;2023-05-02T07:08:21;11.70;99.90
60701;DHT22;46541;49.894;10.886;2023-05-02T07:10:49;11.70;99.90
60701;DHT22;46541;49.894;10.886;2023-05-02T07:13:16;11.80;99.90
60701;DHT22;46541;49.894;10.886;2023-05-02T07:15:43;11.80;99.90
60701;DHT22;46541;49.894;10.886;2023-05-02T07:18:09;11.80;99.90
60701;DHT22;46541;49.894;10.886;2023-05-02T07:20:36;12.00;99.90
60701;DHT22;46541;49.894;10.886;2023-05-02T07:23:04;12.00;99.90
60701;DHT22;46541;49.894;10.886;2023-05-02T07:25:31;12.10;99.90
60701;DHT22;46541;49.894;10.886;2023-05-02T07:27:57;12.30;99.90
60701;DHT22;46541;49.894;10.886;2023-05-02T07:30:24;12.30;99.90
60701;DHT22;46541;49.894;10.886;2023-05-02T07:32:51;12.40;99.90
60701;DHT22;46541;49.894;10.886;2023-05-02T07:35:18;12.50;99.90
60701;DHT22;46541;49.894;10.886;2023-05-02T07:37:44;12.60;99.90
60701;DHT22;46541;49.894;10.886;2023-05-02T07:40:11;12.70;99.90
60701;DHT22;46541;49.894;10.886;2023-05-02T07:42:38;12.60;99.90
60701;DHT22;46541;49.894;10.886;2023-05-02T07:45:07;12.50;99.90
60701;DHT22;46541;49.894;10.886;2023-05-02T07:47:34;12.50;99.90
60701;DHT22;46541;49.894;10.886;2023-05-02T07:50:02;12.70;99.90
60701;DHT22;46541;49.894;10.886;2023-05-02T07:52:31;12.80;99.90
60701;DHT22;46541;49.894;10.886;2023-05-02T07:54:58;12.90;99.90
60701;DHT22;46541;49.894;10.886;2023-05-02T07:57:25;13.20;99.90
60701;DHT22;46541;49.894;10.886;2023-05-02T07:59:52;13.60;99.90
60701;DHT22;46541;49.894;10.886;2023-05-02T08:02:19;14.10;99.90
60701;DHT22;46541;49.894;10.886;2023-05-02T08:04:47;14.60;99.90
60701;DHT22;46541;49.894;10.886;2023-05-02T08:07:15;14.90;99.90
60701;DHT22;46541;49.894;10.886;2023-05-02T08:09:42;14.90;99.90
60701;DHT22;46541;49.894;10.886;2023-05-02T08:12:08;14.80;99.90
60701;DHT22;46541;49.894;10.886;2023-05-02T08:14:35;14.80;99.90
60701;DHT22;46541;49.894;10.886;2023-05-02T08:17:02;14.80;99.90
60701;DHT22;46541;49.894;10.886;2023-05-02T08:19:29;14.70;99.90
60701;DHT22;46541;49.894;10.886;2023-05-02T08:21:55;14.70;99.90
60701;DHT22;46541;49.894;10.886;2023-05-02T08:24:22;14.70;99.90
60701;DHT22;46541;49.894;10.886;2023-05-02T08:26:49;14.90;99.90
60701;DHT22;46541;49.894;10.886;2023-05-02T08:29:16;15.10;99.90
60701;DHT22;46541;49.894;10.886;2023-05-02T08:31:43;15.10;99.90
60701;DHT22;46541;49.894;10.886;2023-05-02T08:34:09;14.90;99.90
60701;DHT22;46541;49.894;10.886;2023-05-02T08:36:36;14.80;99.90
60701;DHT22;46541;49.894;10.886;2023-05-02T08:39:03;14.90;99.90
60701;DHT22;46541;49.894;10.886;2023-05-02T08:41:30;14.90;99.90
60701;DHT22;46541;49.894;10.886;2023-05-02T08:43:58;14.90;99.90
60701;DHT22;46541;49.894;10.886;2023-05-02T08:46:26;14.80;99.90
60701;DHT22;46541;49.894;10.886;2023-05-02T08:48:54;14.90;99.90
60701;DHT22;46541;49.894;10.886;2023-05-02T08:51:24;15.20;99.90
60701;DHT22;46541;49.894;10.886;2023-05-02T08:53:55;15.70;99.90
60701;DHT22;46541;49.894;10.886;2023-05-02T08:56:22;16.00;99.90
60701;DHT22;46541;49.894;10.886;2023-05-02T08:58:50;16.30;99.90
60701;DHT22;46541;49.894;10.886;2023-05-02T09:01:19;16.50;99.90
60701;DHT22;46541;49.894;10.886;2023-05-02T09:03:48;16.70;99.90
60701;DHT22;46541;49.894;10.886;2023-05-02T09:06:17;16.90;99.90
60701;DHT22;46541;49.894;10.886;2023-05-02T09:08:46;17.00;99.90
60701;DHT22;46541;49.894;10.886;2023-05-02T09:11:15;17.20;99.90
60701;DHT22;46541;49.894;10.886;2023-05-02T09:13:49;17.50;99.90
60701;DHT22;46541;49.894;10.886;2023-05-02T09:18:55;18.00;99.90
60701;DHT22;46541;49.894;10.886;2023-05-02T09:21:25;18.20;99.90
60701;DHT22;46541;49.894;10.886;2023-05-02T09:23:54;17.90;99.90
60701;DHT22;46541;49.894;10.886;2023-05-02T09:26:26;17.60;99.90
60701;DHT22;46541;49.894;10.886;2023-05-02T09:28:59;17.40;99.90
60701;DHT22;46541;49.894;10.886;2023-05-02T09:31:34;17.30;99.90
60701;DHT22;46541;49.894;10.886;2023-05-02T09:34:14;17.10;99.90
60701;DHT22;46541;49.894;10.886;2023-05-02T09:36:47;17.30;99.90
60701;DHT22;46541;49.894;10.886;2023-05-02T09:39:18;17.90;99.90
60701;DHT22;46541;49.894;10.886;2023-05-02T09:41:46;18.60;99.90
60701;DHT22;46541;49.894;10.886;2023-05-02T09:44:15;19.30;99.90
60701;DHT22;46541;49.894;10.886;2023-05-02T09:46:46;19.40;99.90
60701;DHT22;46541;49.894;10.886;2023-05-02T09:49:13;19.60;99.10
60701;DHT22;46541;49.894;10.886;2023-05-02T09:51:40;19.90;97.90
60701;DHT22;46541;49.894;10.886;2023-05-02T09:54:09;20.40;96.00
60701;DHT22;46541;49.894;10.886;2023-05-02T09:56:55;20.60;96.10
60701;DHT22;46541;49.894;10.886;2023-05-02T09:59:23;20.20;94.60
60701;DHT22;46541;49.894;10.886;2023-05-02T10:01:57;19.90;94.90
60701;DHT22;46541;49.894;10.886;2023-05-02T10:04:25;20.00;95.40
60701;DHT22;46541;49.894;10.886;2023-05-02T10:06:54;20.30;94.90
60701;DHT22;46541;49.894;10.886;2023-05-02T10:09:21;20.50;93.70
60701;DHT22;46541;49.894;10.886;2023-05-02T10:11:54;20.60;94.50
60701;DHT22;46541;49.894;10.886;2023-05-02T10:14:23;20.40;94.30
60701;DHT22;46541;49.894;10.886;2023-05-02T10:19:44;19.50;93.60
60701;DHT22;46541;49.894;10.886;2023-05-02T10:22:14;19.20;94.30
60701;DHT22;46541;49.894;10.886;2023-05-02T10:24:47;19.00;95.20
60701;DHT22;46541;49.894;10.886;2023-05-02T10:27:15;18.80;97.30
60701;DHT22;46541;49.894;10.886;2023-05-02T10:29:41;18.50;98.40
60701;DHT22;46541;49.894;10.886;2023-05-02T10:32:10;18.50;98.90
60701;DHT22;46541;49.894;10.886;2023-05-02T10:34:38;18.40;99.90
60701;DHT22;46541;49.894;10.886;2023-05-02T10:37:06;18.30;99.50
60701;DHT22;46541;49.894;10.886;2023-05-02T10:39:33;18.20;98.80
60701;DHT22;46541;49.894;10.886;2023-05-02T10:42:01;18.40;99.50
60701;DHT22;46541;49.894;10.886;2023-05-02T10:44:35;18.60;99.90
60701;DHT22;46541;49.894;10.886;2023-05-02T10:52:36;18.60;99.90
60701;DHT22;46541;49.894;10.886;2023-05-02T10:55:16;18.40;99.90
60701;DHT22;46541;49.894;10.886;2023-05-02T11:00:28;18.00;99.90
60701;DHT22;46541;49.894;10.886;2023-05-02T11:02:55;18.00;99.90
60701;DHT22;46541;49.894;10.886;2023-05-02T11:05:23;18.00;99.90
60701;DHT22;46541;49.894;10.886;2023-05-02T11:10:45;18.40;99.90
60701;DHT22;46541;49.894;10.886;2023-05-02T11:13:12;18.40;99.90
60701;DHT22;46541;49.894;10.886;2023-05-02T11:18:07;18.80;99.90
60701;DHT22;46541;49.894;10.886;2023-05-02T11:20:43;18.80;99.80
60701;DHT22;46541;49.894;10.886;2023-05-02T11:25:47;18.60;99.90
60701;DHT22;46541;49.894;10.886;2023-05-02T11:31:04;18.30;99.90
60701;DHT22;46541;49.894;10.886;2023-05-02T11:33:31;18.20;99.90
60701;DHT22;46541;49.894;10.886;2023-05-02T11:35:58;17.90;99.90
60701;DHT22;46541;49.894;10.886;2023-05-02T11:38:26;17.70;99.90
60701;DHT22;46541;49.894;10.886;2023-05-02T11:41:00;17.40;99.90
60701;DHT22;46541;49.894;10.886;2023-05-02T11:43:28;17.30;99.90
60701;DHT22;46541;49.894;10.886;2023-05-02T11:45:59;17.10;99.90
60701;DHT22;46541;49.894;10.886;2023-05-02T11:48:27;17.00;99.90
60701;DHT22;46541;49.894;10.886;2023-05-02T11:50:56;16.90;99.90
60701;DHT22;46541;49.894;10.886;2023-05-02T11:53:25;16.80;99.90
60701;DHT22;46541;49.894;10.886;2023-05-02T11:55:59;16.70;99.90
60701;DHT22;46541;49.894;10.886;2023-05-02T11:58:28;16.60;99.90
60701;DHT22;46541;49.894;10.886;2023-05-02T12:00:55;16.50;99.90
60701;DHT22;46541;49.894;10.886;2023-05-02T12:03:30;16.50;99.90
60701;DHT22;46541;49.894;10.886;2023-05-02T12:06:10;16.50;99.90
60701;DHT22;46541;49.894;10.886;2023-05-02T12:08:39;16.40;99.90
60701;DHT22;46541;49.894;10.886;2023-05-02T12:11:06;16.30;99.90
60701;DHT22;46541;49.894;10.886;2023-05-02T12:13:33;16.10;99.90
60701;DHT22;46541;49.894;10.886;2023-05-02T12:16:00;16.00;99.90
60701;DHT22;46541;49.894;10.886;2023-05-02T12:18:27;16.00;99.90
60701;DHT22;46541;49.894;10.886;2023-05-02T12:20:54;15.80;99.90
60701;DHT22;46541;49.894;10.886;2023-05-02T12:23:23;15.60;99.90
60701;DHT22;46541;49.894;10.886;2023-05-02T12:25:51;15.30;99.90
60701;DHT22;46541;49.894;10.886;2023-05-02T12:28:19;15.20;99.90
60701;DHT22;46541;49.894;10.886;2023-05-02T12:30:47;15.20;99.90
60701;DHT22;46541;49.894;10.886;2023-05-02T12:33:15;15.10;99.90
60701;DHT22;46541;49.894;10.886;2023-05-02T12:35:43;15.00;99.90
60701;DHT22;46541;49.894;10.886;2023-05-02T12:38:18;15.00;99.90
60701;DHT22;46541;49.894;10.886;2023-05-02T12:40:53;15.10;99.90
60701;DHT22;46541;49.894;10.886;2023-05-02T12:43:23;15.30;99.90
60701;DHT22;46541;49.894;10.886;2023-05-02T12:45:49;15.50;99.90
60701;DHT22;46541;49.894;10.886;2023-05-02T12:48:34;15.80;99.90
60701;DHT22;46541;49.894;10.886;2023-05-02T12:51:00;16.20;99.90
60701;DHT22;46541;49.894;10.886;2023-05-02T12:53:38;16.50;99.90
60701;DHT22;46541;49.894;10.886;2023-05-02T12:56:06;16.70;99.90
60701;DHT22;46541;49.894;10.886;2023-05-02T12:58:44;17.00;99.90
60701;DHT22;46541;49.894;10.886;2023-05-02T13:01:13;17.20;99.90
60701;DHT22;46541;49.894;10.886;2023-05-02T13:03:42;17.50;99.90
60701;DHT22;46541;49.894;10.886;2023-05-02T13:06:09;17.70;99.90
60701;DHT22;46541;49.894;10.886;2023-05-02T13:08:36;17.80;99.90
60701;DHT22;46541;49.894;10.886;2023-05-02T13:11:03;17.70;99.90
60701;DHT22;46541;49.894;10.886;2023-05-02T13:13:30;17.50;99.90
60701;DHT22;46541;49.894;10.886;2023-05-02T13:15:58;17.20;99.90
60701;DHT22;46541;49.894;10.886;2023-05-02T13:18:24;17.30;99.90
60701;DHT22;46541;49.894;10.886;2023-05-02T13:20:53;17.30;99.90
60701;DHT22;46541;49.894;10.886;2023-05-02T13:23:20;17.30;99.90
60701;DHT22;46541;49.894;10.886;2023-05-02T13:25:47;17.20;99.90
60701;DHT22;46541;49.894;10.886;2023-05-02T13:28:13;17.20;99.90
60701;DHT22;46541;49.894;10.886;2023-05-02T13:30:40;17.30;99.90
60701;DHT22;46541;49.894;10.886;2023-05-02T13:33:07;17.20;99.90
60701;DHT22;46541;49.894;10.886;2023-05-02T13:35:34;17.20;99.90
60701;DHT22;46541;49.894;10.886;2023-05-02T13:38:02;17.10;99.90
60701;DHT22;46541;49.894;10.886;2023-05-02T13:40:29;17.10;99.90
60701;DHT22;46541;49.894;10.886;2023-05-02T13:42:55;17.10;99.90
60701;DHT22;46541;49.894;10.886;2023-05-02T13:45:23;17.00;99.90
60701;DHT22;46541;49.894;10.886;2023-05-02T13:47:49;17.00;99.90
60701;DHT22;46541;49.894;10.886;2023-05-02T13:50:16;17.00;99.90
60701;DHT22;46541;49.894;10.886;2023-05-02T13:52:43;16.90;99.90
60701;DHT22;46541;49.894;10.886;2023-05-02T13:55:13;16.90;99.90
60701;DHT22;46541;49.894;10.886;2023-05-02T13:57:40;17.00;99.90
60701;DHT22;46541;49.894;10.886;2023-05-02T14:00:07;17.00;99.90
60701;DHT22;46541;49.894;10.886;2023-05-02T14:02:35;17.00;99.90
60701;DHT22;46541;49.894;10.886;2023-05-02T14:05:03;17.10;99.90
60701;DHT22;46541;49.894;10.886;2023-05-02T14:07:29;17.10;99.90
60701;DHT22;46541;49.894;10.886;2023-05-02T14:09:56;17.10;99.90
60701;DHT22;46541;49.894;10.886;2023-05-02T14:12:23;17.20;99.90
60701;DHT22;46541;49.894;10.886;2023-05-02T14:14:49;17.30;99.90
60701;DHT22;46541;49.894;10.886;2023-05-02T14:17:16;17.30;99.90
60701;DHT22;46541;49.894;10.886;2023-05-02T14:19:43;17.30;99.90
60701;DHT22;46541;49.894;10.886;2023-05-02T14:22:09;17.30;99.90
60701;DHT22;46541;49.894;10.886;2023-05-02T14:24:36;17.40;99.90
60701;DHT22;46541;49.894;10.886;2023-05-02T14:27:03;17.40;99.90
60701;DHT22;46541;49.894;10.886;2023-05-02T14:29:30;17.40;99.90
60701;DHT22;46541;49.894;10.886;2023-05-02T14:31:57;17.40;99.90
60701;DHT22;46541;49.894;10.886;2023-05-02T14:34:23;17.70;99.90
60701;DHT22;46541;49.894;10.886;2023-05-02T14:36:52;18.00;99.90
60701;DHT22;46541;49.894;10.886;2023-05-02T14:39:19;18.20;99.90
60701;DHT22;46541;49.894;10.886;2023-05-02T14:41:45;18.10;99.90
60701;DHT22;46541;49.894;10.886;2023-05-02T14:44:12;18.10;99.90
60701;DHT22;46541;49.894;10.886;2023-05-02T14:46:39;18.00;99.90
60701;DHT22;46541;49.894;10.886;2023-05-02T14:49:06;17.90;99.90
60701;DHT22;46541;49.894;10.886;2023-05-02T14:51:35;17.90;99.90
60701;DHT22;46541;49.894;10.886;2023-05-02T14:54:02;17.90;99.90
60701;DHT22;46541;49.894;10.886;2023-05-02T14:56:29;17.90;99.90
60701;DHT22;46541;49.894;10.886;2023-05-02T14:58:56;17.80;99.90
60701;DHT22;46541;49.894;10.886;2023-05-02T15:01:23;17.60;99.90
60701;DHT22;46541;49.894;10.886;2023-05-02T15:03:50;17.60;99.90
60701;DHT22;46541;49.894;10.886;2023-05-02T15:06:33;17.50;99.90
60701;DHT22;46541;49.894;10.886;2023-05-02T15:09:01;17.30;99.90
60701;DHT22;46541;49.894;10.886;2023-05-02T15:11:28;17.40;99.90
60701;DHT22;46541;49.894;10.886;2023-05-02T15:13:54;17.40;99.90
60701;DHT22;46541;49.894;10.886;2023-05-02T15:16:24;17.50;99.90
60701;DHT22;46541;49.894;10.886;2023-05-02T15:18:53;17.50;99.90
60701;DHT22;46541;49.894;10.886;2023-05-02T15:21:20;17.50;99.90
60701;DHT22;46541;49.894;10.886;2023-05-02T15:23:46;17.60;99.90
60701;DHT22;46541;49.894;10.886;2023-05-02T15:26:13;17.70;99.90
60701;DHT22;46541;49.894;10.886;2023-05-02T15:28:40;17.70;99.90
60701;DHT22;46541;49.894;10.886;2023-05-02T15:31:07;17.90;99.90
60701;DHT22;46541;49.894;10.886;2023-05-02T15:33:33;17.90;99.90
60701;DHT22;46541;49.894;10.886;2023-05-02T15:36:00;17.90;99.90
60701;DHT22;46541;49.894;10.886;2023-05-02T15:38:27;17.90;99.90
60701;DHT22;46541;49.894;10.886;2023-05-02T15:43:21;17.70;99.90
60701;DHT22;46541;49.894;10.886;2023-05-02T15:45:58;17.60;99.90
60701;DHT22;46541;49.894;10.886;2023-05-02T15:48:29;17.60;99.90
60701;DHT22;46541;49.894;10.886;2023-05-02T15:50:56;17.60;99.90
60701;DHT22;46541;49.894;10.886;2023-05-02T15:53:23;17.80;99.90
60701;DHT22;46541;49.894;10.886;2023-05-02T15:55:50;17.90;99.90
60701;DHT22;46541;49.894;10.886;2023-05-02T15:58:17;17.90;99.90
60701;DHT22;46541;49.894;10.886;2023-05-02T16:00:45;18.00;99.90
60701;DHT22;46541;49.894;10.886;2023-05-02T16:03:15;17.90;99.90
60701;DHT22;46541;49.894;10.886;2023-05-02T16:05:41;17.80;99.90
60701;DHT22;46541;49.894;10.886;2023-05-02T16:08:08;17.70;99.90
60701;DHT22;46541;49.894;10.886;2023-05-02T16:10:35;17.60;99.90
60701;DHT22;46541;49.894;10.886;2023-05-02T16:13:04;17.70;99.90
60701;DHT22;46541;49.894;10.886;2023-05-02T16:15:31;17.70;99.60
60701;DHT22;46541;49.894;10.886;2023-05-02T16:17:58;17.60;99.70